createdAt,value
2016-07-10T00:00:01.213Z,1005.59
2016-07-10T00:01:01.196Z,1005.57
2016-07-10T00:02:01.179Z,1005.52
2016-07-10T00:03:01.162Z,1005.51
2016-07-10T00:04:01.145Z,1005.48
2016-07-10T00:05:01.128Z,1005.48
2016-07-10T00:06:01.111Z,1005.44
2016-07-10T00:07:01.095Z,1005.46
2016-07-10T00:08:01.079Z,1005.47
2016-07-10T00:09:01.061Z,1005.4
2016-07-10T00:10:01.044Z,1005.43
2016-07-10T00:11:01.027Z,1005.37
2016-07-10T00:12:01.011Z,1005.38
2016-07-10T00:13:00.995Z,1005.39
2016-07-10T00:14:00.977Z,1005.37
2016-07-10T00:15:00.961Z,1005.36
2016-07-10T00:16:00.942Z,1005.37
2016-07-10T00:17:00.927Z,1005.37
2016-07-10T00:18:00.911Z,1005.37
2016-07-10T00:19:00.893Z,1005.37
2016-07-10T00:20:00.877Z,1005.34
2016-07-10T00:21:00.859Z,1005.35
2016-07-10T00:22:00.844Z,1005.31
2016-07-10T00:23:00.827Z,1005.27
2016-07-10T00:24:00.809Z,1005.28
2016-07-10T00:25:00.792Z,1005.27
2016-07-10T00:26:00.778Z,1005.27
2016-07-10T00:27:00.759Z,1005.28
2016-07-10T00:28:00.742Z,1005.25
2016-07-10T00:29:00.726Z,1005.25
2016-07-10T00:30:00.709Z,1005.24
2016-07-10T00:31:00.692Z,1005.28
2016-07-10T00:32:00.675Z,1005.23
2016-07-10T00:33:00.660Z,1005.22
2016-07-10T00:34:00.642Z,1005.26
2016-07-10T00:35:00.625Z,1005.23
2016-07-10T00:36:00.612Z,1005.23
2016-07-10T00:37:00.592Z,1005.28
2016-07-10T00:38:00.575Z,1005.24
2016-07-10T00:39:00.558Z,1005.22
2016-07-10T00:40:00.542Z,1005.19
2016-07-10T00:41:00.525Z,1005.21
2016-07-10T00:42:00.507Z,1005.26
2016-07-10T00:43:00.490Z,1005.2
2016-07-10T00:44:00.476Z,1005.22
2016-07-10T00:45:00.458Z,1005.19
2016-07-10T00:46:00.441Z,1005.22
2016-07-10T00:47:00.424Z,1005.24
2016-07-10T00:48:00.408Z,1005.21
2016-07-10T00:49:00.391Z,1005.17
2016-07-10T00:50:00.373Z,1005.2
2016-07-10T00:51:00.356Z,1005.18
2016-07-10T00:52:00.341Z,1005.16
2016-07-10T00:53:00.322Z,1005.12
2016-07-10T00:54:00.306Z,1005.09
2016-07-10T00:55:00.290Z,1005.12
2016-07-10T00:56:00.271Z,1005.1
2016-07-10T00:57:00.259Z,1005.1
2016-07-10T00:58:00.238Z,1005.12
2016-07-10T00:59:00.221Z,1005.15
2016-07-10T01:00:00.203Z,1005.16
2016-07-10T01:01:00.187Z,1005.13
2016-07-10T01:02:00.170Z,1005.11
2016-07-10T01:03:00.153Z,1005.09
2016-07-10T01:04:00.137Z,1005.11
2016-07-10T01:05:00.118Z,1005.15
2016-07-10T01:06:00.102Z,1005.19
2016-07-10T01:07:00.086Z,1005.15
2016-07-10T01:08:00.067Z,1005.16
2016-07-10T01:09:00.051Z,1005.14
2016-07-10T01:10:00.034Z,1005.19
2016-07-10T01:11:00.017Z,1005.17
2016-07-10T01:12:00.000Z,1005.14
2016-07-10T01:12:59.984Z,1005.15
2016-07-10T01:13:59.967Z,1005.16
2016-07-10T01:14:59.948Z,1005.18
2016-07-10T01:15:59.931Z,1005.14
2016-07-10T01:16:59.915Z,1005.16
2016-07-10T01:17:59.898Z,1005.19
2016-07-10T01:18:59.881Z,1005.16
2016-07-10T01:19:59.862Z,1005.14
2016-07-10T01:20:59.847Z,1005.12
2016-07-10T01:21:59.827Z,1005.15
2016-07-10T01:22:59.811Z,1005.11
2016-07-10T01:23:59.794Z,1005.14
2016-07-10T01:24:59.777Z,1005.1
2016-07-10T01:25:59.760Z,1005.12
2016-07-10T01:26:59.742Z,1005.08
2016-07-10T01:27:59.725Z,1005.11
2016-07-10T01:28:59.707Z,1005.12
2016-07-10T01:29:59.690Z,1005.1
2016-07-10T01:30:59.677Z,1005.06
2016-07-10T01:31:59.656Z,1005.1
2016-07-10T01:32:59.639Z,1005.08
2016-07-10T01:33:59.621Z,1005.06
2016-07-10T01:34:59.604Z,1005.09
2016-07-10T01:35:59.587Z,1005.06
2016-07-10T01:36:59.570Z,1005.03
2016-07-10T01:37:59.552Z,1005.08
2016-07-10T01:38:59.535Z,1005.08
2016-07-10T01:39:59.517Z,1005.05
2016-07-10T01:40:59.499Z,1005.05
2016-07-10T01:41:59.482Z,1005.02
2016-07-10T01:42:59.467Z,1005.05
2016-07-10T01:43:59.448Z,1005.06
2016-07-10T01:44:59.431Z,1005.06
2016-07-10T01:45:59.413Z,1005.06
2016-07-10T01:46:59.396Z,1005.04
2016-07-10T01:47:59.378Z,1005.06
2016-07-10T01:48:59.362Z,1005.04
2016-07-10T01:49:59.344Z,1005.06
2016-07-10T01:50:59.324Z,1005.05
2016-07-10T01:51:59.309Z,1005.05
2016-07-10T01:52:59.292Z,1005.06
2016-07-10T01:53:59.275Z,1005.02
2016-07-10T01:54:59.256Z,1005.03
2016-07-10T01:55:59.240Z,1005.03
2016-07-10T01:56:59.222Z,1005.01
2016-07-10T01:57:59.204Z,1005.01
2016-07-10T01:58:59.185Z,1004.99
2016-07-10T01:59:59.168Z,1005
2016-07-10T02:00:59.152Z,1004.98
2016-07-10T02:01:59.136Z,1005.03
2016-07-10T02:02:59.127Z,1005
2016-07-10T02:03:59.100Z,1005.02
2016-07-10T02:04:59.082Z,1005.01
2016-07-10T02:05:59.064Z,1005.01
2016-07-10T02:06:59.047Z,1005.01
2016-07-10T02:07:59.030Z,1005
2016-07-10T02:08:59.011Z,1005.06
2016-07-10T02:09:58.994Z,1005.01
2016-07-10T02:10:58.978Z,1005.03
2016-07-10T02:11:58.960Z,1005
2016-07-10T02:12:58.942Z,1005.01
2016-07-10T02:13:58.924Z,1005
2016-07-10T02:14:58.906Z,1005
2016-07-10T02:15:58.890Z,1005.02
2016-07-10T02:16:58.871Z,1004.98
2016-07-10T02:17:58.853Z,1004.99
2016-07-10T02:18:58.837Z,1004.97
2016-07-10T02:19:58.818Z,1004.97
2016-07-10T02:20:58.801Z,1004.93
2016-07-10T02:21:58.785Z,1004.9
2016-07-10T02:22:58.766Z,1004.89
2016-07-10T02:23:58.749Z,1004.84
2016-07-10T02:24:58.731Z,1004.84
2016-07-10T02:25:58.714Z,1004.8
2016-07-10T02:26:58.696Z,1004.84
2016-07-10T02:27:58.677Z,1004.82
2016-07-10T02:28:58.660Z,1004.83
2016-07-10T02:29:58.644Z,1004.8
2016-07-10T02:30:58.625Z,1004.76
2016-07-10T02:31:58.608Z,1004.75
2016-07-10T02:32:58.590Z,1004.76
2016-07-10T02:33:58.573Z,1004.72
2016-07-10T02:34:58.554Z,1004.69
2016-07-10T02:35:58.536Z,1004.68
2016-07-10T02:36:58.520Z,1004.67
2016-07-10T02:37:58.504Z,1004.64
2016-07-10T02:38:58.484Z,1004.6
2016-07-10T02:39:58.468Z,1004.6
2016-07-10T02:40:58.449Z,1004.61
2016-07-10T02:41:58.431Z,1004.59
2016-07-10T02:42:58.415Z,1004.58
2016-07-10T02:43:58.397Z,1004.59
2016-07-10T02:44:58.379Z,1004.57
2016-07-10T02:45:58.360Z,1004.54
2016-07-10T02:46:58.343Z,1004.54
2016-07-10T02:47:58.327Z,1004.55
2016-07-10T02:48:58.308Z,1004.51
2016-07-10T02:49:58.289Z,1004.5
2016-07-10T02:50:58.272Z,1004.47
2016-07-10T02:51:58.255Z,1004.46
2016-07-10T02:52:58.236Z,1004.43
2016-07-10T02:53:58.219Z,1004.47
2016-07-10T02:54:58.202Z,1004.42
2016-07-10T02:55:58.185Z,1004.46
2016-07-10T02:56:58.164Z,1004.44
2016-07-10T02:57:58.147Z,1004.42
2016-07-10T02:58:58.130Z,1004.4
2016-07-10T02:59:58.113Z,1004.38
2016-07-10T03:00:58.094Z,1004.41
2016-07-10T03:01:58.076Z,1004.33
2016-07-10T03:02:58.059Z,1004.32
2016-07-10T03:03:58.040Z,1004.32
2016-07-10T03:04:58.023Z,1004.28
2016-07-10T03:05:58.021Z,1004.3
2016-07-10T03:06:57.999Z,1004.25
2016-07-10T03:07:57.968Z,1004.26
2016-07-10T03:08:57.951Z,1004.28
2016-07-10T03:09:57.935Z,1004.28
2016-07-10T03:10:57.918Z,1004.26
2016-07-10T03:11:57.898Z,1004.29
2016-07-10T03:12:57.885Z,1004.21
2016-07-10T03:13:57.866Z,1004.2
2016-07-10T03:14:57.848Z,1004.21
2016-07-10T03:15:57.830Z,1004.23
2016-07-10T03:16:57.807Z,1004.18
2016-07-10T03:17:57.789Z,1004.15
2016-07-10T03:18:57.775Z,1004.14
2016-07-10T03:19:57.753Z,1004.12
2016-07-10T03:20:57.741Z,1004.13
2016-07-10T03:21:57.722Z,1004.07
2016-07-10T03:22:57.699Z,1004.07
2016-07-10T03:23:57.680Z,1004.07
2016-07-10T03:24:57.662Z,1004.09
2016-07-10T03:25:57.650Z,1004.05
2016-07-10T03:26:57.628Z,1004.05
2016-07-10T03:27:57.616Z,1004.09
2016-07-10T03:28:57.597Z,1004.04
2016-07-10T03:29:57.571Z,1004.02
2016-07-10T03:30:57.555Z,1004.06
2016-07-10T03:31:57.541Z,1004.04
2016-07-10T03:32:57.524Z,1004.02
2016-07-10T03:33:57.502Z,1003.98
2016-07-10T03:34:57.486Z,1004.04
2016-07-10T03:35:57.474Z,1004.03
2016-07-10T03:36:57.446Z,1004.02
2016-07-10T03:37:57.434Z,1004.05
2016-07-10T03:38:57.415Z,1004.03
2016-07-10T03:39:57.393Z,1004.05
2016-07-10T03:40:57.378Z,1004.07
2016-07-10T03:41:57.356Z,1004.05
2016-07-10T03:42:57.339Z,1004.04
2016-07-10T03:43:57.320Z,1004.05
2016-07-10T03:44:57.303Z,1004.05
2016-07-10T03:45:57.285Z,1004.07
2016-07-10T03:46:57.267Z,1004.06
2016-07-10T03:47:57.248Z,1004.06
2016-07-10T03:48:57.231Z,1004.03
2016-07-10T03:49:57.212Z,1004.04
2016-07-10T03:50:57.195Z,1004.01
2016-07-10T03:51:57.177Z,1004.03
2016-07-10T03:52:57.160Z,1003.99
2016-07-10T03:53:57.141Z,1004
2016-07-10T03:54:57.123Z,1003.99
2016-07-10T03:55:57.105Z,1004.01
2016-07-10T03:56:57.093Z,1004
2016-07-10T03:57:57.069Z,1003.97
2016-07-10T03:58:57.051Z,1003.96
2016-07-10T03:59:57.033Z,1003.96
2016-07-10T04:00:57.026Z,1003.91
2016-07-10T04:01:56.998Z,1003.95
2016-07-10T04:02:56.979Z,1003.99
2016-07-10T04:03:56.963Z,1003.97
2016-07-10T04:04:56.944Z,1004
2016-07-10T04:05:56.926Z,1003.95
2016-07-10T04:06:56.907Z,1003.97
2016-07-10T04:07:56.890Z,1003.99
2016-07-10T04:08:56.875Z,1003.96
2016-07-10T04:09:56.855Z,1004
2016-07-10T04:10:56.836Z,1003.99
2016-07-10T04:11:56.820Z,1004
2016-07-10T04:12:56.801Z,1004.03
2016-07-10T04:13:56.784Z,1003.99
2016-07-10T04:14:56.773Z,1004.01
2016-07-10T04:15:56.749Z,1003.97
2016-07-10T04:16:56.735Z,1003.99
2016-07-10T04:17:56.714Z,1003.95
2016-07-10T04:18:56.696Z,1003.92
2016-07-10T04:19:56.679Z,1003.92
2016-07-10T04:20:56.661Z,1003.91
2016-07-10T04:21:56.643Z,1003.9
2016-07-10T04:22:56.627Z,1003.94
2016-07-10T04:23:56.608Z,1003.91
2016-07-10T04:24:56.590Z,1003.9
2016-07-10T04:25:56.573Z,1003.92
2016-07-10T04:26:56.556Z,1003.88
2016-07-10T04:27:56.537Z,1003.9
2016-07-10T04:28:56.521Z,1003.91
2016-07-10T04:29:56.504Z,1003.88
2016-07-10T04:30:56.487Z,1003.87
2016-07-10T04:31:56.470Z,1003.84
2016-07-10T04:32:56.451Z,1003.86
2016-07-10T04:33:56.434Z,1003.83
2016-07-10T04:34:56.418Z,1003.82
2016-07-10T04:35:56.405Z,1003.81
2016-07-10T04:36:56.382Z,1003.81
2016-07-10T04:37:56.366Z,1003.77
2016-07-10T04:38:56.354Z,1003.77
2016-07-10T04:39:56.332Z,1003.8
2016-07-10T04:40:56.316Z,1003.78
2016-07-10T04:41:56.298Z,1003.84
2016-07-10T04:42:56.283Z,1003.84
2016-07-10T04:43:56.265Z,1003.84
2016-07-10T04:44:56.249Z,1003.84
2016-07-10T04:45:56.231Z,1003.78
2016-07-10T04:46:56.215Z,1003.83
2016-07-10T04:47:56.196Z,1003.77
2016-07-10T04:48:56.180Z,1003.76
2016-07-10T04:49:56.163Z,1003.76
2016-07-10T04:50:56.148Z,1003.77
2016-07-10T04:51:56.130Z,1003.79
2016-07-10T04:52:56.113Z,1003.79
2016-07-10T04:53:56.097Z,1003.79
2016-07-10T04:54:56.085Z,1003.78
2016-07-10T04:55:56.063Z,1003.86
2016-07-10T04:56:56.047Z,1003.84
2016-07-10T04:57:56.030Z,1003.82
2016-07-10T04:58:56.014Z,1003.84
2016-07-10T04:59:55.997Z,1003.82
2016-07-10T05:00:55.980Z,1003.82
2016-07-10T05:01:55.965Z,1003.82
2016-07-10T05:02:55.953Z,1003.86
2016-07-10T05:03:55.933Z,1003.86
2016-07-10T05:04:55.915Z,1003.84
2016-07-10T05:05:55.898Z,1003.87
2016-07-10T05:06:55.883Z,1003.9
2016-07-10T05:07:55.866Z,1003.89
2016-07-10T05:08:55.849Z,1003.89
2016-07-10T05:09:55.833Z,1003.87
2016-07-10T05:10:55.817Z,1003.83
2016-07-10T05:11:55.800Z,1003.88
2016-07-10T05:12:55.789Z,1003.86
2016-07-10T05:13:55.767Z,1003.9
2016-07-10T05:14:55.751Z,1003.89
2016-07-10T05:15:55.734Z,1003.88
2016-07-10T05:16:55.718Z,1003.89
2016-07-10T05:17:55.703Z,1003.88
2016-07-10T05:18:55.686Z,1003.88
2016-07-10T05:19:55.672Z,1003.81
2016-07-10T05:20:55.656Z,1003.83
2016-07-10T05:21:55.638Z,1003.81
2016-07-10T05:22:55.623Z,1003.78
2016-07-10T05:23:55.607Z,1003.8
2016-07-10T05:24:55.591Z,1003.78
2016-07-10T05:25:55.586Z,1003.81
2016-07-10T05:26:55.560Z,1003.82
2016-07-10T05:27:55.543Z,1003.79
2016-07-10T05:28:55.529Z,1003.82
2016-07-10T05:29:55.511Z,1003.75
2016-07-10T05:30:55.496Z,1003.78
2016-07-10T05:31:55.480Z,1003.75
2016-07-10T05:32:55.466Z,1003.76
2016-07-10T05:33:55.448Z,1003.77
2016-07-10T05:34:55.434Z,1003.76
2016-07-10T05:35:55.419Z,1003.74
2016-07-10T05:36:55.405Z,1003.74
2016-07-10T05:37:55.388Z,1003.77
2016-07-10T05:38:55.374Z,1003.77
2016-07-10T05:39:55.359Z,1003.76
2016-07-10T05:40:55.343Z,1003.76
2016-07-10T05:41:55.329Z,1003.74
2016-07-10T05:42:55.314Z,1003.75
2016-07-10T05:43:55.300Z,1003.74
2016-07-10T05:44:55.284Z,1003.77
2016-07-10T05:45:55.269Z,1003.79
2016-07-10T05:46:55.254Z,1003.82
2016-07-10T05:47:55.240Z,1003.79
2016-07-10T05:48:55.226Z,1003.76
2016-07-10T05:49:55.211Z,1003.75
2016-07-10T05:50:55.196Z,1003.76
2016-07-10T05:51:55.181Z,1003.77
2016-07-10T05:52:55.165Z,1003.76
2016-07-10T05:53:55.153Z,1003.78
2016-07-10T05:54:55.136Z,1003.76
2016-07-10T05:55:55.122Z,1003.76
2016-07-10T05:56:55.107Z,1003.71
2016-07-10T05:57:55.092Z,1003.74
2016-07-10T05:58:55.079Z,1003.72
2016-07-10T05:59:55.063Z,1003.7
2016-07-10T06:00:55.048Z,1003.71
2016-07-10T06:01:55.033Z,1003.75
2016-07-10T06:02:55.018Z,1003.79
2016-07-10T06:03:55.004Z,1003.77
2016-07-10T06:04:54.990Z,1003.75
2016-07-10T06:05:54.977Z,1003.74
2016-07-10T06:06:54.961Z,1003.77
2016-07-10T06:07:54.946Z,1003.77
2016-07-10T06:08:54.933Z,1003.79
2016-07-10T06:09:54.919Z,1003.79
2016-07-10T06:10:54.904Z,1003.78
2016-07-10T06:11:54.891Z,1003.81
2016-07-10T06:12:54.876Z,1003.81
2016-07-10T06:13:54.862Z,1003.8
2016-07-10T06:14:54.848Z,1003.8
2016-07-10T06:15:54.833Z,1003.77
2016-07-10T06:16:54.820Z,1003.79
2016-07-10T06:17:54.805Z,1003.8
2016-07-10T06:18:54.792Z,1003.77
2016-07-10T06:19:54.780Z,1003.79
2016-07-10T06:20:54.766Z,1003.8
2016-07-10T06:21:54.752Z,1003.81
2016-07-10T06:22:54.738Z,1003.77
2016-07-10T06:23:54.726Z,1003.79
2016-07-10T06:24:54.713Z,1003.79
2016-07-10T06:25:54.700Z,1003.78
2016-07-10T06:26:54.691Z,1003.73
2016-07-10T06:27:54.676Z,1003.72
2016-07-10T06:28:54.662Z,1003.72
2016-07-10T06:29:54.651Z,1003.71
2016-07-10T06:30:54.639Z,1003.7
2016-07-10T06:31:54.628Z,1003.7
2016-07-10T06:32:54.614Z,1003.69
2016-07-10T06:33:54.603Z,1003.68
2016-07-10T06:34:54.591Z,1003.64
2016-07-10T06:35:54.583Z,1003.68
2016-07-10T06:36:54.572Z,1003.68
2016-07-10T06:37:54.556Z,1003.69
2016-07-10T06:38:54.545Z,1003.67
2016-07-10T06:39:54.541Z,1003.68
2016-07-10T06:40:54.522Z,1003.68
2016-07-10T06:41:54.511Z,1003.68
2016-07-10T06:42:54.501Z,1003.66
2016-07-10T06:43:54.489Z,1003.7
2016-07-10T06:44:54.479Z,1003.65
2016-07-10T06:45:54.468Z,1003.62
2016-07-10T06:46:54.455Z,1003.64
2016-07-10T06:47:54.444Z,1003.61
2016-07-10T06:48:54.432Z,1003.63
2016-07-10T06:49:54.422Z,1003.62
2016-07-10T06:50:54.409Z,1003.58
2016-07-10T06:51:54.400Z,1003.58
2016-07-10T06:52:54.395Z,1003.52
2016-07-10T06:53:54.378Z,1003.55
2016-07-10T06:54:54.368Z,1003.51
2016-07-10T06:55:54.357Z,1003.49
2016-07-10T06:56:54.347Z,1003.48
2016-07-10T06:57:54.335Z,1003.44
2016-07-10T06:58:54.325Z,1003.45
2016-07-10T06:59:54.315Z,1003.44
2016-07-10T07:00:54.305Z,1003.44
2016-07-10T07:01:54.292Z,1003.47
2016-07-10T07:02:54.281Z,1003.45
2016-07-10T07:03:54.271Z,1003.41
2016-07-10T07:04:54.259Z,1003.43
2016-07-10T07:05:54.249Z,1003.43
2016-07-10T07:06:54.238Z,1003.44
2016-07-10T07:07:54.229Z,1003.37
2016-07-10T07:08:54.217Z,1003.44
2016-07-10T07:09:54.205Z,1003.4
2016-07-10T07:10:54.196Z,1003.4
2016-07-10T07:11:54.185Z,1003.4
2016-07-10T07:12:54.174Z,1003.4
2016-07-10T07:13:54.165Z,1003.37
2016-07-10T07:14:54.154Z,1003.35
2016-07-10T07:15:54.261Z,1003.35
2016-07-10T07:16:54.135Z,1003.32
2016-07-10T07:17:54.127Z,1003.34
2016-07-10T07:18:54.118Z,1003.33
2016-07-10T07:19:54.107Z,1003.32
2016-07-10T07:20:54.099Z,1003.32
2016-07-10T07:21:54.092Z,1003.32
2016-07-10T07:22:54.083Z,1003.3
2016-07-10T07:23:54.075Z,1003.29
2016-07-10T07:24:54.066Z,1003.31
2016-07-10T07:25:54.059Z,1003.22
2016-07-10T07:26:54.049Z,1003.23
2016-07-10T07:27:54.042Z,1003.25
2016-07-10T07:28:54.034Z,1003.23
2016-07-10T07:29:54.028Z,1003.23
2016-07-10T07:30:54.018Z,1003.2
2016-07-10T07:31:54.012Z,1003.21
2016-07-10T07:32:54.005Z,1003.2
2016-07-10T07:33:53.999Z,1003.19
2016-07-10T07:34:53.990Z,1003.2
2016-07-10T07:35:53.983Z,1003.2
2016-07-10T07:36:53.977Z,1003.15
2016-07-10T07:37:53.969Z,1003.16
2016-07-10T07:38:53.963Z,1003.17
2016-07-10T07:39:53.957Z,1003.15
2016-07-10T07:40:53.951Z,1003.09
2016-07-10T07:41:53.944Z,1003.09
2016-07-10T07:42:53.938Z,1003.12
2016-07-10T07:43:53.931Z,1003.06
2016-07-10T07:44:53.927Z,1003.08
2016-07-10T07:45:53.918Z,1003.08
2016-07-10T07:46:53.912Z,1003.05
2016-07-10T07:47:53.906Z,1003
2016-07-10T07:48:53.897Z,1003.04
2016-07-10T07:49:53.892Z,1003
2016-07-10T07:50:53.886Z,1003.06
2016-07-10T07:51:53.880Z,1002.98
2016-07-10T07:52:53.871Z,1002.96
2016-07-10T07:53:53.865Z,1002.98
2016-07-10T07:54:53.859Z,1002.98
2016-07-10T07:55:53.852Z,1002.87
2016-07-10T07:56:53.846Z,1002.88
2016-07-10T07:57:53.841Z,1002.85
2016-07-10T07:58:53.834Z,1002.86
2016-07-10T07:59:53.828Z,1002.78
2016-07-10T08:00:53.822Z,1002.83
2016-07-10T08:01:53.817Z,1002.8
2016-07-10T08:02:53.811Z,1002.74
2016-07-10T08:03:53.805Z,1002.73
2016-07-10T08:04:53.801Z,1002.77
2016-07-10T08:05:53.796Z,1002.75
2016-07-10T08:06:53.791Z,1002.78
2016-07-10T08:07:53.785Z,1002.73
2016-07-10T08:08:53.780Z,1002.75
2016-07-10T08:09:53.775Z,1002.72
2016-07-10T08:10:53.777Z,1002.7
2016-07-10T08:11:53.769Z,1002.72
2016-07-10T08:12:53.762Z,1002.64
2016-07-10T08:13:53.759Z,1002.7
2016-07-10T08:14:53.753Z,1002.64
2016-07-10T08:15:53.748Z,1002.62
2016-07-10T08:16:53.744Z,1002.65
2016-07-10T08:17:53.741Z,1002.63
2016-07-10T08:18:53.736Z,1002.63
2016-07-10T08:19:53.733Z,1002.65
2016-07-10T08:20:53.730Z,1002.65
2016-07-10T08:21:53.726Z,1002.69
2016-07-10T08:22:53.722Z,1002.68
2016-07-10T08:23:53.718Z,1002.6
2016-07-10T08:24:53.715Z,1002.59
2016-07-10T08:25:53.711Z,1002.55
2016-07-10T08:26:53.709Z,1002.58
2016-07-10T08:27:53.705Z,1002.56
2016-07-10T08:28:53.705Z,1002.55
2016-07-10T08:29:53.698Z,1002.52
2016-07-10T08:30:53.695Z,1002.51
2016-07-10T08:31:53.691Z,1002.49
2016-07-10T08:32:53.686Z,1002.49
2016-07-10T08:33:53.684Z,1002.46
2016-07-10T08:34:53.679Z,1002.51
2016-07-10T08:35:53.675Z,1002.44
2016-07-10T08:36:53.671Z,1002.42
2016-07-10T08:37:53.667Z,1002.37
2016-07-10T08:38:53.664Z,1002.37
2016-07-10T08:39:53.660Z,1002.45
2016-07-10T08:40:53.655Z,1002.48
2016-07-10T08:41:53.651Z,1002.45
2016-07-10T08:42:53.648Z,1002.42
2016-07-10T08:43:53.644Z,1002.43
2016-07-10T08:44:53.643Z,1002.39
2016-07-10T08:45:53.637Z,1002.39
2016-07-10T08:46:53.633Z,1002.4
2016-07-10T08:47:53.628Z,1002.4
2016-07-10T08:48:53.624Z,1002.43
2016-07-10T08:49:53.620Z,1002.42
2016-07-10T08:50:53.616Z,1002.35
2016-07-10T08:51:53.613Z,1002.41
2016-07-10T08:52:53.608Z,1002.42
2016-07-10T08:53:53.605Z,1002.39
2016-07-10T08:54:53.601Z,1002.34
2016-07-10T08:55:53.598Z,1002.41
2016-07-10T08:56:53.595Z,1002.42
2016-07-10T08:57:53.594Z,1002.36
2016-07-10T08:58:53.593Z,1002.39
2016-07-10T08:59:53.588Z,1002.36
2016-07-10T09:00:53.586Z,1002.38
2016-07-10T09:01:53.582Z,1002.36
2016-07-10T09:02:53.580Z,1002.37
2016-07-10T09:03:53.579Z,1002.35
2016-07-10T09:04:53.576Z,1002.33
2016-07-10T09:05:53.575Z,1002.29
2016-07-10T09:06:53.572Z,1002.29
2016-07-10T09:07:53.570Z,1002.31
2016-07-10T09:08:53.570Z,1002.26
2016-07-10T09:09:53.566Z,1002.28
2016-07-10T09:10:53.564Z,1002.25
2016-07-10T09:11:53.562Z,1002.22
2016-07-10T09:12:53.561Z,1002.19
2016-07-10T09:13:53.560Z,1002.28
2016-07-10T09:14:53.558Z,1002.2
2016-07-10T09:15:53.556Z,1002.18
2016-07-10T09:16:53.553Z,1002.18
2016-07-10T09:17:53.552Z,1002.16
2016-07-10T09:18:53.551Z,1002.19
2016-07-10T09:19:53.549Z,1002.18
2016-07-10T09:20:53.547Z,1002.15
2016-07-10T09:21:53.546Z,1002.16
2016-07-10T09:22:53.547Z,1002.16
2016-07-10T09:23:53.544Z,1002.2
2016-07-10T09:24:53.543Z,1002.1
2016-07-10T09:25:53.544Z,1002.3
2016-07-10T09:26:53.543Z,1002.22
2016-07-10T09:27:53.542Z,1002.24
2016-07-10T09:28:53.540Z,1002.21
2016-07-10T09:29:53.540Z,1002.24
2016-07-10T09:30:53.541Z,1002.22
2016-07-10T09:31:53.538Z,1002.23
2016-07-10T09:32:53.538Z,1002.16
2016-07-10T09:33:53.538Z,1002.13
2016-07-10T09:34:53.536Z,1002.2
2016-07-10T09:35:53.536Z,1002.12
2016-07-10T09:36:53.538Z,1002.12
2016-07-10T09:37:53.536Z,1002.16
2016-07-10T09:38:53.535Z,1002.16
2016-07-10T09:39:53.537Z,1002.05
2016-07-10T09:40:53.537Z,1002.1
2016-07-10T09:41:53.536Z,1002.14
2016-07-10T09:42:53.537Z,1002.02
2016-07-10T09:43:53.537Z,1002.05
2016-07-10T09:44:53.539Z,1002.03
2016-07-10T09:45:53.538Z,1002.04
2016-07-10T09:46:53.539Z,1002.05
2016-07-10T09:47:53.540Z,1002.03
2016-07-10T09:48:53.541Z,1002.01
2016-07-10T09:49:53.542Z,1002.05
2016-07-10T09:50:53.544Z,1002.09
2016-07-10T09:51:53.545Z,1002.08
2016-07-10T09:52:53.547Z,1002.05
2016-07-10T09:53:53.550Z,1002.03
2016-07-10T09:54:53.546Z,1002.04
2016-07-10T09:55:53.547Z,1002.07
2016-07-10T09:56:53.546Z,1002.06
2016-07-10T09:57:53.547Z,1002.03
2016-07-10T09:58:53.546Z,1002.03
2016-07-10T09:59:53.546Z,1001.97
2016-07-10T10:00:53.546Z,1001.96
2016-07-10T10:01:53.550Z,1001.95
2016-07-10T10:02:53.545Z,1001.93
2016-07-10T10:03:53.545Z,1001.87
2016-07-10T10:04:53.546Z,1001.9
2016-07-10T10:05:53.548Z,1001.84
2016-07-10T10:06:53.548Z,1001.87
2016-07-10T10:07:53.547Z,1001.82
2016-07-10T10:08:53.552Z,1001.88
2016-07-10T10:09:53.550Z,1001.88
2016-07-10T10:10:53.549Z,1001.86
2016-07-10T10:11:53.548Z,1001.83
2016-07-10T10:12:53.548Z,1001.71
2016-07-10T10:13:53.549Z,1001.79
2016-07-10T10:14:53.546Z,1001.83
2016-07-10T10:15:53.548Z,1001.78
2016-07-10T10:16:53.547Z,1001.79
2016-07-10T10:17:53.552Z,1001.81
2016-07-10T10:18:53.547Z,1001.85
2016-07-10T10:19:53.548Z,1001.77
2016-07-10T10:20:53.548Z,1001.8
2016-07-10T10:21:53.548Z,1001.75
2016-07-10T10:22:53.547Z,1001.7
2016-07-10T10:23:53.549Z,1001.69
2016-07-10T10:24:53.550Z,1001.75
2016-07-10T10:25:53.548Z,1001.76
2016-07-10T10:26:53.548Z,1001.69
2016-07-10T10:27:53.551Z,1001.75
2016-07-10T10:28:53.551Z,1001.73
2016-07-10T10:29:53.549Z,1001.72
2016-07-10T10:30:53.549Z,1001.7
2016-07-10T10:31:53.548Z,1001.7
2016-07-10T10:32:53.549Z,1001.62
2016-07-10T10:33:53.548Z,1001.62
2016-07-10T10:34:53.549Z,1001.57
2016-07-10T10:35:53.547Z,1001.59
2016-07-10T10:36:53.545Z,1001.49
2016-07-10T10:37:53.544Z,1001.51
2016-07-10T10:38:53.545Z,1001.49
2016-07-10T10:39:53.543Z,1001.59
2016-07-10T10:40:53.541Z,1001.54
2016-07-10T10:41:53.540Z,1001.53
2016-07-10T10:42:53.539Z,1001.49
2016-07-10T10:43:53.538Z,1001.5
2016-07-10T10:44:53.536Z,1001.45
2016-07-10T10:45:53.536Z,1001.45
2016-07-10T10:46:53.534Z,1001.4
2016-07-10T10:47:53.534Z,1001.36
2016-07-10T10:48:53.539Z,1001.3
2016-07-10T10:49:53.535Z,1001.35
2016-07-10T10:50:53.534Z,1001.33
2016-07-10T10:51:53.533Z,1001.37
2016-07-10T10:52:53.534Z,1001.4
2016-07-10T10:53:53.534Z,1001.3
2016-07-10T10:54:53.536Z,1001.24
2016-07-10T10:55:53.536Z,1001.25
2016-07-10T10:56:53.537Z,1001.23
2016-07-10T10:57:53.539Z,1001.2
2016-07-10T10:58:53.540Z,1001.19
2016-07-10T10:59:53.541Z,1001.19
2016-07-10T11:00:53.543Z,1001.2
2016-07-10T11:01:53.544Z,1001.24
2016-07-10T11:02:53.544Z,1001.22
2016-07-10T11:03:53.546Z,1001.2
2016-07-10T11:04:53.547Z,1001.21
2016-07-10T11:05:53.549Z,1001.18
2016-07-10T11:06:53.549Z,1001.15
2016-07-10T11:07:53.552Z,1001.16
2016-07-10T11:08:53.552Z,1001.15
2016-07-10T11:09:53.552Z,1001.17
2016-07-10T11:10:53.555Z,1001.15
2016-07-10T11:11:53.556Z,1001.05
2016-07-10T11:12:53.557Z,1001.06
2016-07-10T11:13:53.558Z,1001.03
2016-07-10T11:14:53.560Z,1001.01
2016-07-10T11:15:53.561Z,1001.01
2016-07-10T11:16:53.563Z,1001.05
2016-07-10T11:17:53.566Z,1000.99
2016-07-10T11:18:53.566Z,1001
2016-07-10T11:19:53.569Z,1000.96
2016-07-10T11:20:53.571Z,1001.05
2016-07-10T11:21:53.573Z,1000.99
2016-07-10T11:22:53.575Z,1001.02
2016-07-10T11:23:53.577Z,1001.05
2016-07-10T11:24:53.578Z,1001.05
2016-07-10T11:25:53.581Z,1001.05
2016-07-10T11:26:53.584Z,1001.04
2016-07-10T11:27:53.584Z,1001.03
2016-07-10T11:28:53.586Z,1001.03
2016-07-10T11:29:53.587Z,1001
2016-07-10T11:30:53.589Z,1000.99
2016-07-10T11:31:53.589Z,1000.99
2016-07-10T11:32:53.589Z,1000.94
2016-07-10T11:33:53.590Z,1000.9
2016-07-10T11:34:53.591Z,1000.93
2016-07-10T11:35:53.589Z,1000.9
2016-07-10T11:36:53.590Z,1000.86
2016-07-10T11:37:53.591Z,1000.89
2016-07-10T11:38:53.592Z,1000.85
2016-07-10T11:39:53.593Z,1000.84
2016-07-10T11:40:53.595Z,1000.8
2016-07-10T11:41:53.595Z,1000.86
2016-07-10T11:42:53.597Z,1000.84
2016-07-10T11:43:53.600Z,1000.78
2016-07-10T11:44:53.602Z,1000.67
2016-07-10T11:45:53.603Z,1000.75
2016-07-10T11:46:53.606Z,1000.67
2016-07-10T11:47:53.608Z,1000.68
2016-07-10T11:48:53.611Z,1000.71
2016-07-10T11:49:53.613Z,1000.7
2016-07-10T11:50:53.616Z,1000.7
2016-07-10T11:51:53.617Z,1000.68
2016-07-10T11:52:53.620Z,1000.61
2016-07-10T11:53:53.621Z,1000.58
2016-07-10T11:54:53.622Z,1000.5
2016-07-10T11:55:53.626Z,1000.51
2016-07-10T11:56:53.627Z,1000.55
2016-07-10T11:57:53.628Z,1000.54
2016-07-10T11:58:53.631Z,1000.54
2016-07-10T11:59:53.633Z,1000.53
2016-07-10T12:00:53.635Z,1000.5
2016-07-10T12:01:53.637Z,1000.5
2016-07-10T12:02:53.640Z,1000.42
2016-07-10T12:03:53.642Z,1000.49
2016-07-10T12:04:53.645Z,1000.47
2016-07-10T12:05:53.650Z,1000.45
2016-07-10T12:06:53.650Z,1000.48
2016-07-10T12:07:53.653Z,1000.47
2016-07-10T12:08:53.655Z,1000.41